sensor_id;sensor_type;location;lat;lon;timestamp;pressure;altitude;pressure_sealevel;temperature;humidity
75409;BME280;63979;55.644;37.734;2023-03-12T00:00:55;97969.72;;;2.09;86.03
75409;BME280;63979;55.644;37.734;2023-03-12T00:05:56;97959.75;;;2.14;85.84
75409;BME280;63979;55.644;37.734;2023-03-12T00:10:57;97943.56;;;2.20;85.84
75409;BME280;63979;55.644;37.734;2023-03-12T00:16:03;97930.63;;;2.30;86.07
75409;BME280;63979;55.644;37.734;2023-03-12T00:21:05;97937.91;;;2.39;86.14
75409;BME280;63979;55.644;37.734;2023-03-12T00:26:09;97909.91;;;2.38;86.04
75409;BME280;63979;55.644;37.734;2023-03-12T00:31:19;97910.16;;;2.47;85.87
75409;BME280;63979;55.644;37.734;2023-03-12T00:36:23;97907.22;;;2.52;86.15
75409;BME280;63979;55.644;37.734;2023-03-12T00:41:28;97881.63;;;2.54;86.38
75409;BME280;63979;55.644;37.734;2023-03-12T00:46:30;97876.34;;;2.67;86.07
75409;BME280;63979;55.644;37.734;2023-03-12T00:51:31;97861.09;;;2.72;86.44
75409;BME280;63979;55.644;37.734;2023-03-12T00:56:32;97804.22;;;2.44;86.73
75409;BME280;63979;55.644;37.734;2023-03-12T01:01:33;97842.22;;;2.91;86.63
75409;BME280;63979;55.644;37.734;2023-03-12T01:06:33;97844.13;;;2.89;86.79
75409;BME280;63979;55.644;37.734;2023-03-12T01:11:35;97819.47;;;2.90;86.68
75409;BME280;63979;55.644;37.734;2023-03-12T01:16:37;97824.38;;;3.07;87.15
75409;BME280;63979;55.644;37.734;2023-03-12T01:21:38;97815.97;;;3.15;86.75
75409;BME280;63979;55.644;37.734;2023-03-12T01:26:39;97805.59;;;3.24;86.96
75409;BME280;63979;55.644;37.734;2023-03-12T01:31:40;97795.06;;;3.24;86.48
75409;BME280;63979;55.644;37.734;2023-03-12T01:36:41;97784.28;;;3.27;87.04
75409;BME280;63979;55.644;37.734;2023-03-12T01:41:43;97779.81;;;3.40;86.90
75409;BME280;63979;55.644;37.734;2023-03-12T01:46:44;97780.53;;;3.42;87.44
75409;BME280;63979;55.644;37.734;2023-03-12T01:56:55;97756.56;;;3.45;87.36
75409;BME280;63979;55.644;37.734;2023-03-12T02:01:56;97747.22;;;3.65;87.49
75409;BME280;63979;55.644;37.734;2023-03-12T02:07:08;97740.88;;;3.68;87.21
75409;BME280;63979;55.644;37.734;2023-03-12T02:12:10;97729.34;;;3.69;86.89
75409;BME280;63979;55.644;37.734;2023-03-12T02:17:11;97719.91;;;3.78;86.90
75409;BME280;63979;55.644;37.734;2023-03-12T02:22:13;97710.19;;;3.78;87.58
75409;BME280;63979;55.644;37.734;2023-03-12T02:27:16;97711.88;;;3.79;87.04
75409;BME280;63979;55.644;37.734;2023-03-12T02:32:33;97699.56;;;3.91;86.98
75409;BME280;63979;55.644;37.734;2023-03-12T02:37:45;97690.81;;;3.90;86.74
75409;BME280;63979;55.644;37.734;2023-03-12T02:42:46;97620.72;;;3.64;86.53
75409;BME280;63979;55.644;37.734;2023-03-12T02:47:47;97668.75;;;3.91;87.01
75409;BME280;63979;55.644;37.734;2023-03-12T02:52:48;97623.75;;;3.82;86.51
75409;BME280;63979;55.644;37.734;2023-03-12T02:57:49;97640.69;;;4.01;86.99
75409;BME280;63979;55.644;37.734;2023-03-12T03:02:50;97612.72;;;3.99;87.08
75409;BME280;63979;55.644;37.734;2023-03-12T03:07:51;97621.13;;;4.04;86.73
75409;BME280;63979;55.644;37.734;2023-03-12T03:12:52;97623.66;;;4.05;86.68
75409;BME280;63979;55.644;37.734;2023-03-12T03:17:53;97609.72;;;4.03;87.00
75409;BME280;63979;55.644;37.734;2023-03-12T03:22:54;97597.97;;;4.07;86.56
75409;BME280;63979;55.644;37.734;2023-03-12T03:27:55;97586.56;;;4.07;87.11
75409;BME280;63979;55.644;37.734;2023-03-12T03:32:57;97595.34;;;4.19;86.70
75409;BME280;63979;55.644;37.734;2023-03-12T03:37:58;97573.25;;;4.20;87.05
75409;BME280;63979;55.644;37.734;2023-03-12T03:42:59;97576.13;;;4.28;87.12
75409;BME280;63979;55.644;37.734;2023-03-12T03:48:00;97509.06;;;4.08;87.02
75409;BME280;63979;55.644;37.734;2023-03-12T03:53:01;97534.34;;;4.33;86.47
75409;BME280;63979;55.644;37.734;2023-03-12T03:58:03;97531.47;;;4.36;86.95
75409;BME280;63979;55.644;37.734;2023-03-12T04:03:04;97531.31;;;4.49;86.91
75409;BME280;63979;55.644;37.734;2023-03-12T04:08:05;97530.34;;;4.50;87.38
75409;BME280;63979;55.644;37.734;2023-03-12T04:13:06;97511.50;;;4.54;87.49
75409;BME280;63979;55.644;37.734;2023-03-12T04:18:07;97497.81;;;4.49;87.44
75409;BME280;63979;55.644;37.734;2023-03-12T04:23:08;97500.44;;;4.60;87.54
75409;BME280;63979;55.644;37.734;2023-03-12T04:28:10;97477.41;;;4.51;87.07
75409;BME280;63979;55.644;37.734;2023-03-12T04:33:10;97481.19;;;4.69;87.52
75409;BME280;63979;55.644;37.734;2023-03-12T04:38:11;97465.91;;;4.73;87.01
75409;BME280;63979;55.644;37.734;2023-03-12T04:43:13;97472.34;;;4.80;87.29
75409;BME280;63979;55.644;37.734;2023-03-12T04:48:14;97463.09;;;4.86;87.14
75409;BME280;63979;55.644;37.734;2023-03-12T04:53:15;97407.53;;;4.55;87.33
75409;BME280;63979;55.644;37.734;2023-03-12T04:58:17;97465.16;;;5.03;87.17
75409;BME280;63979;55.644;37.734;2023-03-12T05:03:18;97443.94;;;5.14;87.65
75409;BME280;63979;55.644;37.734;2023-03-12T05:08:19;97430.00;;;5.12;87.41
75409;BME280;63979;55.644;37.734;2023-03-12T05:13:21;97434.13;;;5.26;87.34
75409;BME280;63979;55.644;37.734;2023-03-12T05:18:22;97433.06;;;5.38;86.98
75409;BME280;63979;55.644;37.734;2023-03-12T05:23:26;97411.94;;;5.48;86.30
75409;BME280;63979;55.644;37.734;2023-03-12T05:28:28;97422.81;;;5.45;86.15
75409;BME280;63979;55.644;37.734;2023-03-12T05:33:29;97416.00;;;5.52;86.45
75409;BME280;63979;55.644;37.734;2023-03-12T05:38:30;97406.84;;;5.56;86.50
75409;BME280;63979;55.644;37.734;2023-03-12T05:43:32;97387.59;;;5.54;86.55
75409;BME280;63979;55.644;37.734;2023-03-12T05:48:33;97393.09;;;5.62;86.43
75409;BME280;63979;55.644;37.734;2023-03-12T05:53:34;97389.28;;;5.55;87.35
75409;BME280;63979;55.644;37.734;2023-03-12T05:58:35;97352.47;;;5.42;87.43
75409;BME280;63979;55.644;37.734;2023-03-12T06:03:37;97365.25;;;5.68;86.90
75409;BME280;63979;55.644;37.734;2023-03-12T06:08:39;97390.47;;;5.81;86.92
75409;BME280;63979;55.644;37.734;2023-03-12T06:13:41;97348.97;;;5.82;86.73
75409;BME280;63979;55.644;37.734;2023-03-12T06:18:42;97356.75;;;5.83;86.65
75409;BME280;63979;55.644;37.734;2023-03-12T06:23:44;97361.50;;;5.80;86.72
75409;BME280;63979;55.644;37.734;2023-03-12T06:28:47;97359.84;;;5.88;86.97
75409;BME280;63979;55.644;37.734;2023-03-12T06:33:48;97350.94;;;5.89;86.83
75409;BME280;63979;55.644;37.734;2023-03-12T06:38:50;97336.28;;;5.85;86.98
75409;BME280;63979;55.644;37.734;2023-03-12T06:43:51;97313.56;;;5.73;87.38
75409;BME280;63979;55.644;37.734;2023-03-12T06:48:52;97331.47;;;6.00;87.09
75409;BME280;63979;55.644;37.734;2023-03-12T06:53:53;97269.69;;;5.71;86.75
75409;BME280;63979;55.644;37.734;2023-03-12T06:58:54;97316.00;;;6.15;86.52
75409;BME280;63979;55.644;37.734;2023-03-12T07:03:55;97324.63;;;6.17;86.52
75409;BME280;63979;55.644;37.734;2023-03-12T07:08:56;97260.84;;;5.91;86.48
75409;BME280;63979;55.644;37.734;2023-03-12T07:13:57;97290.22;;;6.17;86.17
75409;BME280;63979;55.644;37.734;2023-03-12T07:18:59;97273.75;;;6.23;86.14
75409;BME280;63979;55.644;37.734;2023-03-12T07:24:00;97269.72;;;6.38;85.11
75409;BME280;63979;55.644;37.734;2023-03-12T07:29:06;97272.50;;;6.37;85.60
75409;BME280;63979;55.644;37.734;2023-03-12T07:34:07;97268.34;;;6.24;86.00
75409;BME280;63979;55.644;37.734;2023-03-12T07:39:08;97263.31;;;6.31;86.10
75409;BME280;63979;55.644;37.734;2023-03-12T07:44:10;97265.41;;;6.18;86.83
75409;BME280;63979;55.644;37.734;2023-03-12T07:49:11;97241.00;;;6.24;86.54
75409;BME280;63979;55.644;37.734;2023-03-12T07:54:14;97241.44;;;6.29;86.52
75409;BME280;63979;55.644;37.734;2023-03-12T07:59:15;97235.59;;;6.25;86.76
75409;BME280;63979;55.644;37.734;2023-03-12T08:04:16;97225.53;;;6.19;86.95
75409;BME280;63979;55.644;37.734;2023-03-12T08:09:17;97217.28;;;6.32;86.41
75409;BME280;63979;55.644;37.734;2023-03-12T08:14:18;97226.50;;;6.18;87.13
75409;BME280;63979;55.644;37.734;2023-03-12T08:19:19;97209.59;;;6.39;86.67
75409;BME280;63979;55.644;37.734;2023-03-12T08:24:21;97192.44;;;6.43;85.92
75409;BME280;63979;55.644;37.734;2023-03-12T08:29:22;97176.69;;;6.41;85.12
75409;BME280;63979;55.644;37.734;2023-03-12T08:34:24;97187.53;;;6.48;85.33
75409;BME280;63979;55.644;37.734;2023-03-12T08:39:24;97158.78;;;6.53;85.02
75409;BME280;63979;55.644;37.734;2023-03-12T08:44:25;97148.47;;;6.60;84.81
75409;BME280;63979;55.644;37.734;2023-03-12T08:49:26;97157.03;;;6.71;84.37
75409;BME280;63979;55.644;37.734;2023-03-12T08:54:27;97140.78;;;6.84;83.82
75409;BME280;63979;55.644;37.734;2023-03-12T08:59:28;97148.88;;;6.82;83.91
75409;BME280;63979;55.644;37.734;2023-03-12T09:04:29;97080.25;;;6.62;83.62
75409;BME280;63979;55.644;37.734;2023-03-12T09:09:30;97134.06;;;6.89;83.55
75409;BME280;63979;55.644;37.734;2023-03-12T09:14:31;97096.41;;;6.58;83.90
75409;BME280;63979;55.644;37.734;2023-03-12T09:19:32;97094.25;;;6.72;83.45
75409;BME280;63979;55.644;37.734;2023-03-12T09:24:33;97076.78;;;6.51;83.68
75409;BME280;63979;55.644;37.734;2023-03-12T09:29:34;97110.78;;;6.83;83.63
75409;BME280;63979;55.644;37.734;2023-03-12T09:34:36;97084.22;;;6.93;83.38
75409;BME280;63979;55.644;37.734;2023-03-12T09:39:39;97086.03;;;6.93;83.57
75409;BME280;63979;55.644;37.734;2023-03-12T09:44:43;97020.66;;;6.66;83.22
75409;BME280;63979;55.644;37.734;2023-03-12T09:49:48;97063.97;;;6.92;83.29
75409;BME280;63979;55.644;37.734;2023-03-12T09:54:55;97046.66;;;6.98;83.25
75409;BME280;63979;55.644;37.734;2023-03-12T10:00:00;97039.97;;;7.11;82.49
75409;BME280;63979;55.644;37.734;2023-03-12T10:05:08;97013.00;;;6.98;82.50
75409;BME280;63979;55.644;37.734;2023-03-12T10:31:24;96996.94;;;7.00;81.87
75409;BME280;63979;55.644;37.734;2023-03-12T10:36:35;96972.63;;;7.04;81.74
75409;BME280;63979;55.644;37.734;2023-03-12T10:41:37;96916.22;;;6.76;81.42
75409;BME280;63979;55.644;37.734;2023-03-12T10:52:15;96974.59;;;7.02;81.64
75409;BME280;63979;55.644;37.734;2023-03-12T10:57:17;96953.22;;;7.04;81.72
75409;BME280;63979;55.644;37.734;2023-03-12T11:02:29;96954.41;;;7.09;82.07
75409;BME280;63979;55.644;37.734;2023-03-12T11:07:32;96953.03;;;7.23;81.42
75409;BME280;63979;55.644;37.734;2023-03-12T11:12:37;96938.72;;;7.16;81.41
75409;BME280;63979;55.644;37.734;2023-03-12T11:17:39;96926.97;;;7.18;81.55
75409;BME280;63979;55.644;37.734;2023-03-12T11:22:40;96937.91;;;7.41;80.58
75409;BME280;63979;55.644;37.734;2023-03-12T11:27:42;96872.00;;;7.29;79.66
75409;BME280;63979;55.644;37.734;2023-03-12T11:32:46;96912.34;;;7.40;79.82
75409;BME280;63979;55.644;37.734;2023-03-12T11:54:31;96900.88;;;7.32;80.33
75409;BME280;63979;55.644;37.734;2023-03-12T12:00:09;96902.53;;;7.33;80.12
75409;BME280;63979;55.644;37.734;2023-03-12T12:10:31;96955.81;;;6.78;75.33
75409;BME280;63979;55.644;37.734;2023-03-12T12:21:20;97022.22;;;5.57;73.71
75409;BME280;63979;55.644;37.734;2023-03-12T12:26:41;96985.03;;;4.92;73.46
75409;BME280;63979;55.644;37.734;2023-03-12T12:31:58;97049.56;;;4.99;72.73
75409;BME280;63979;55.644;37.734;2023-03-12T12:37:24;97011.81;;;4.30;72.71
75409;BME280;63979;55.644;37.734;2023-03-12T12:42:31;97100.91;;;4.47;73.37
75409;BME280;63979;55.644;37.734;2023-03-12T12:47:45;97077.25;;;3.96;73.95
75409;BME280;63979;55.644;37.734;2023-03-12T12:52:53;97108.56;;;4.10;74.01
75409;BME280;63979;55.644;37.734;2023-03-12T13:03:02;97124.63;;;3.97;73.52
75409;BME280;63979;55.644;37.734;2023-03-12T13:08:04;97147.78;;;3.94;73.29
75409;BME280;63979;55.644;37.734;2023-03-12T13:13:19;97149.38;;;3.43;73.57
75409;BME280;63979;55.644;37.734;2023-03-12T13:18:26;97167.59;;;3.15;73.81
75409;BME280;63979;55.644;37.734;2023-03-12T13:29:33;97191.28;;;2.49;74.75
75409;BME280;63979;55.644;37.734;2023-03-12T13:34:44;97190.09;;;2.08;76.58
75409;BME280;63979;55.644;37.734;2023-03-12T13:39:46;97225.72;;;2.12;77.06
75409;BME280;63979;55.644;37.734;2023-03-12T13:44:47;97244.09;;;2.01;77.83
75409;BME280;63979;55.644;37.734;2023-03-12T13:49:54;97264.00;;;1.81;75.46
75409;BME280;63979;55.644;37.734;2023-03-12T13:55:04;97258.13;;;1.43;74.78
75409;BME280;63979;55.644;37.734;2023-03-12T14:00:27;97286.53;;;1.25;75.52
75409;BME280;63979;55.644;37.734;2023-03-12T14:05:33;97278.28;;;1.18;75.88
75409;BME280;63979;55.644;37.734;2023-03-12T14:21:37;97274.19;;;1.14;75.62
75409;BME280;63979;55.644;37.734;2023-03-12T14:26:39;97334.56;;;1.27;76.63
75409;BME280;63979;55.644;37.734;2023-03-12T14:31:40;97359.16;;;1.26;76.14
75409;BME280;63979;55.644;37.734;2023-03-12T14:36:49;97372.25;;;0.89;75.24
75409;BME280;63979;55.644;37.734;2023-03-12T14:41:58;97392.91;;;0.69;74.20
75409;BME280;63979;55.644;37.734;2023-03-12T14:47:03;97392.59;;;0.48;71.55
75409;BME280;63979;55.644;37.734;2023-03-12T14:52:13;97402.78;;;0.40;72.54
75409;BME280;63979;55.644;37.734;2023-03-12T14:57:20;97460.69;;;0.37;71.49
75409;BME280;63979;55.644;37.734;2023-03-12T15:02:25;97384.34;;;-0.13;71.54
75409;BME280;63979;55.644;37.734;2023-03-12T15:07:30;97460.84;;;0.21;70.32
75409;BME280;63979;55.644;37.734;2023-03-12T15:12:34;97481.34;;;0.02;70.60
75409;BME280;63979;55.644;37.734;2023-03-12T15:17:36;97477.53;;;-0.21;72.03
75409;BME280;63979;55.644;37.734;2023-03-12T15:22:39;97503.88;;;-0.51;72.13
75409;BME280;63979;55.644;37.734;2023-03-12T15:27:40;97562.16;;;-0.48;73.09
75409;BME280;63979;55.644;37.734;2023-03-12T15:33:05;97604.34;;;-0.67;73.08
75409;BME280;63979;55.644;37.734;2023-03-12T15:38:16;97610.84;;;-0.88;74.41
75409;BME280;63979;55.644;37.734;2023-03-12T15:43:19;97644.66;;;-1.15;73.88
75409;BME280;63979;55.644;37.734;2023-03-12T15:48:36;97651.03;;;-1.35;74.84
75409;BME280;63979;55.644;37.734;2023-03-12T15:53:39;97664.03;;;-1.33;75.99
75409;BME280;63979;55.644;37.734;2023-03-12T15:58:40;97655.66;;;-1.71;75.48
75409;BME280;63979;55.644;37.734;2023-03-12T16:03:43;97679.34;;;-1.74;76.63
75409;BME280;63979;55.644;37.734;2023-03-12T16:08:54;97754.22;;;-1.40;75.75
75409;BME280;63979;55.644;37.734;2023-03-12T16:14:26;97748.06;;;-1.55;76.68
75409;BME280;63979;55.644;37.734;2023-03-12T16:19:30;97778.59;;;-1.40;76.06
75409;BME280;63979;55.644;37.734;2023-03-12T16:24:33;97788.19;;;-1.39;75.15
75409;BME280;63979;55.644;37.734;2023-03-12T16:29:37;97801.31;;;-1.40;74.42
75409;BME280;63979;55.644;37.734;2023-03-12T16:34:38;97841.78;;;-1.30;74.48
75409;BME280;63979;55.644;37.734;2023-03-12T16:39:39;97852.91;;;-1.60;73.53
75409;BME280;63979;55.644;37.734;2023-03-12T16:44:40;97845.84;;;-1.75;74.11
75409;BME280;63979;55.644;37.734;2023-03-12T16:49:42;97845.00;;;-1.75;74.30
75409;BME280;63979;55.644;37.734;2023-03-12T16:54:46;97928.06;;;-1.29;74.60
75409;BME280;63979;55.644;37.734;2023-03-12T16:59:48;97933.13;;;-1.43;75.71
75409;BME280;63979;55.644;37.734;2023-03-12T17:04:50;97949.69;;;-1.60;74.33
75409;BME280;63979;55.644;37.734;2023-03-12T17:09:52;97980.16;;;-1.41;73.55
75409;BME280;63979;55.644;37.734;2023-03-12T17:14:53;98001.50;;;-1.32;74.12
75409;BME280;63979;55.644;37.734;2023-03-12T17:19:54;98027.53;;;-1.65;73.13
75409;BME280;63979;55.644;37.734;2023-03-12T17:24:56;98035.75;;;-1.72;73.91
75409;BME280;63979;55.644;37.734;2023-03-12T17:29:57;98047.09;;;-1.54;73.28
75409;BME280;63979;55.644;37.734;2023-03-12T17:34:58;97994.19;;;-1.78;73.70
75409;BME280;63979;55.644;37.734;2023-03-12T17:40:03;98078.72;;;-1.78;72.75
75409;BME280;63979;55.644;37.734;2023-03-12T17:45:09;97989.19;;;-2.38;73.51
75409;BME280;63979;55.644;37.734;2023-03-12T17:50:11;98116.88;;;-2.11;72.74
75409;BME280;63979;55.644;37.734;2023-03-12T17:55:12;98102.09;;;-2.12;74.35
75409;BME280;63979;55.644;37.734;2023-03-12T18:00:13;98114.84;;;-2.05;75.79
75409;BME280;63979;55.644;37.734;2023-03-12T18:05:15;98120.66;;;-2.18;75.00
75409;BME280;63979;55.644;37.734;2023-03-12T18:10:16;98137.19;;;-2.18;73.81
75409;BME280;63979;55.644;37.734;2023-03-12T18:15:17;98160.25;;;-2.07;72.79
75409;BME280;63979;55.644;37.734;2023-03-12T18:20:18;98189.53;;;-1.99;72.49
75409;BME280;63979;55.644;37.734;2023-03-12T18:25:19;98199.41;;;-2.06;71.51
75409;BME280;63979;55.644;37.734;2023-03-12T18:30:20;98208.38;;;-1.93;71.05
75409;BME280;63979;55.644;37.734;2023-03-12T18:35:21;98133.25;;;-2.27;68.22
75409;BME280;63979;55.644;37.734;2023-03-12T18:40:22;98226.19;;;-2.01;67.49
75409;BME280;63979;55.644;37.734;2023-03-12T18:45:23;98237.16;;;-2.13;66.46
75409;BME280;63979;55.644;37.734;2023-03-12T18:50:24;98253.81;;;-1.95;66.63
75409;BME280;63979;55.644;37.734;2023-03-12T18:55:25;98268.59;;;-2.14;64.71
75409;BME280;63979;55.644;37.734;2023-03-12T19:00:26;98287.72;;;-2.34;63.33
75409;BME280;63979;55.644;37.734;2023-03-12T19:05:27;98314.84;;;-2.16;64.23
75409;BME280;63979;55.644;37.734;2023-03-12T19:10:28;98344.94;;;-2.28;63.27
75409;BME280;63979;55.644;37.734;2023-03-12T19:15:29;98341.88;;;-2.17;64.23
75409;BME280;63979;55.644;37.734;2023-03-12T19:20:31;98335.94;;;-2.21;63.73
75409;BME280;63979;55.644;37.734;2023-03-12T19:25:32;98372.44;;;-2.40;63.74
75409;BME280;63979;55.644;37.734;2023-03-12T19:30:33;98376.81;;;-2.40;64.04
75409;BME280;63979;55.644;37.734;2023-03-12T19:35:41;98398.63;;;-2.41;64.36
75409;BME280;63979;55.644;37.734;2023-03-12T19:40:50;98356.13;;;-2.68;63.83
75409;BME280;63979;55.644;37.734;2023-03-12T19:45:52;98394.44;;;-2.47;64.74
75409;BME280;63979;55.644;37.734;2023-03-12T19:50:54;98412.38;;;-2.60;63.96
75409;BME280;63979;55.644;37.734;2023-03-12T19:55:55;98436.00;;;-2.63;63.73
75409;BME280;63979;55.644;37.734;2023-03-12T20:01:00;98449.78;;;-2.59;64.31
75409;BME280;63979;55.644;37.734;2023-03-12T20:06:01;98463.88;;;-2.63;63.56
75409;BME280;63979;55.644;37.734;2023-03-12T20:11:07;98425.97;;;-2.73;64.13
75409;BME280;63979;55.644;37.734;2023-03-12T20:16:09;98456.31;;;-2.71;64.22
75409;BME280;63979;55.644;37.734;2023-03-12T20:21:11;98484.19;;;-2.71;64.06
75409;BME280;63979;55.644;37.734;2023-03-12T20:26:12;98485.16;;;-2.74;64.71
75409;BME280;63979;55.644;37.734;2023-03-12T20:31:15;98503.69;;;-2.82;65.34
75409;BME280;63979;55.644;37.734;2023-03-12T20:36:16;98502.78;;;-2.80;65.46
75409;BME280;63979;55.644;37.734;2023-03-12T20:41:17;98487.91;;;-3.02;65.35
75409;BME280;63979;55.644;37.734;2023-03-12T20:46:18;98522.88;;;-2.83;66.20
75409;BME280;63979;55.644;37.734;2023-03-12T20:51:19;98532.63;;;-2.88;66.54
75409;BME280;63979;55.644;37.734;2023-03-12T20:56:20;98464.81;;;-3.37;66.65
75409;BME280;63979;55.644;37.734;2023-03-12T21:01:21;98524.00;;;-3.15;66.36
75409;BME280;63979;55.644;37.734;2023-03-12T21:06:22;98494.31;;;-3.35;66.89
75409;BME280;63979;55.644;37.734;2023-03-12T21:11:23;98563.59;;;-3.02;66.64
75409;BME280;63979;55.644;37.734;2023-03-12T21:16:26;98592.63;;;-3.11;67.55
75409;BME280;63979;55.644;37.734;2023-03-12T21:21:27;98567.03;;;-3.26;67.52
75409;BME280;63979;55.644;37.734;2023-03-12T21:26:28;98584.59;;;-3.31;67.93
75409;BME280;63979;55.644;37.734;2023-03-12T21:31:29;98423.16;;;-4.45;67.50
75409;BME280;63979;55.644;37.734;2023-03-12T21:36:30;98593.00;;;-3.50;67.08
75409;BME280;63979;55.644;37.734;2023-03-12T21:41:31;98611.34;;;-3.53;66.07
75409;BME280;63979;55.644;37.734;2023-03-12T21:46:33;98619.28;;;-3.56;65.65
75409;BME280;63979;55.644;37.734;2023-03-12T21:51:34;98626.13;;;-3.53;65.30
75409;BME280;63979;55.644;37.734;2023-03-12T21:56:35;98617.91;;;-3.67;64.49
75409;BME280;63979;55.644;37.734;2023-03-12T22:01:36;98645.44;;;-3.59;64.73
75409;BME280;63979;55.644;37.734;2023-03-12T22:06:37;98667.53;;;-3.70;64.65
75409;BME280;63979;55.644;37.734;2023-03-12T22:11:38;98659.19;;;-3.83;64.00
75409;BME280;63979;55.644;37.734;2023-03-12T22:16:39;98701.38;;;-3.69;64.23
75409;BME280;63979;55.644;37.734;2023-03-12T22:21:40;98679.16;;;-3.82;64.93
75409;BME280;63979;55.644;37.734;2023-03-12T22:26:44;98701.69;;;-3.80;64.87
75409;BME280;63979;55.644;37.734;2023-03-12T22:31:45;98710.41;;;-3.81;65.33
75409;BME280;63979;55.644;37.734;2023-03-12T22:36:46;98720.13;;;-3.87;65.54
75409;BME280;63979;55.644;37.734;2023-03-12T22:41:48;98742.84;;;-3.91;65.08
75409;BME280;63979;55.644;37.734;2023-03-12T22:46:52;98746.34;;;-3.92;66.23
75409;BME280;63979;55.644;37.734;2023-03-12T22:51:53;98742.41;;;-4.06;66.96
75409;BME280;63979;55.644;37.734;2023-03-12T22:56:54;98756.44;;;-4.11;66.91
75409;BME280;63979;55.644;37.734;2023-03-12T23:01:55;98760.66;;;-4.06;67.21
75409;BME280;63979;55.644;37.734;2023-03-12T23:06:56;98766.72;;;-4.06;67.91
75409;BME280;63979;55.644;37.734;2023-03-12T23:11:57;98769.13;;;-3.98;67.29
75409;BME280;63979;55.644;37.734;2023-03-12T23:16:58;98775.94;;;-3.94;67.10
75409;BME280;63979;55.644;37.734;2023-03-12T23:21:59;98784.50;;;-3.89;66.95
75409;BME280;63979;55.644;37.734;2023-03-12T23:27:01;98791.13;;;-3.78;66.98
75409;BME280;63979;55.644;37.734;2023-03-12T23:32:02;98798.97;;;-3.78;66.59
75409;BME280;63979;55.644;37.734;2023-03-12T23:37:03;98783.28;;;-3.76;66.66
75409;BME280;63979;55.644;37.734;2023-03-12T23:42:04;98824.47;;;-3.58;66.63
75409;BME280;63979;55.644;37.734;2023-03-12T23:47:05;98821.69;;;-3.52;66.60
75409;BME280;63979;55.644;37.734;2023-03-12T23:52:06;98832.72;;;-3.42;66.24
75409;BME280;63979;55.644;37.734;2023-03-12T23:57:07;98845.63;;;-3.37;65.73
